Hlavní strana
METAR-TAF:

METAR-TAF

Letiště :

Karáčí, Pákistán

Mezinárodní letiště Džinnáh

zeměpisná šířka: 24-54N, zeměpisná délka: 067-08E, výška: 21 m

Aktuální stav počasí

Zpráva byla vytvořena před 21 minutami, v 21:55 UTC
Západojihozápadní vítr 10 kt
Teplota 27°C
Vlhkost vzduchu 74%
Tlak 1006 hPa
Viditelnost: 5000 m
Polojasno ve výšce 2000 ft
zákal

METAR: OPKC 252155Z 24010KT 5000 HZ SCT020 27/22 Q1006 NOSIG

Čas: 03:16 (22:16 UTC)

Předpověď počasí

Zpráva byla vytvořena před 6 hodinami a 16 minutami, v 16:00 UTC
Předpověď platná od 25 v 18 UTC do 26 v 24 UTC
Západní vítr 12 kt
Viditelnost: 5000 m
zákal
Od UTC
Západojihozápadní vítr 8 kt s nárazy do 18 kt
Viditelnost: 6000 m
Změna
od 26 v 18 UTC do 26 v 20 UTC
Západní vítr 8 kt
Viditelnost: 4000 m
zákal

TAF: OPKC 251600Z 2518/2624 27012KT 5000 HZ NSC FM 260600Z 24008G18KT 6000 NSC BECMG 2618/2620 27008KT 4000 HZ NSC

Stav a předpovědi počasí z více než 4 000 letišť (zprávy METAR a TAF).

Červené a žluté tečky na mapě představují dostupné meteorologické stanice.

Když kurzor umístíte na tečku, zobrazí se název stanice.

Pak kliknutím zobrazíte stav a předpověď počasí.

Chcete-li změnit mapu, kliknutím na zelené tlačítko se znaménkem +mapu přiblížíte, kliknutím na zelené tlačítko se znaménkem – mapu oddálíte a kliknutím na zelené šipky přejdete na sousední mapy.


METAR-TAF: